Time;durP1;ratioP1;P1;durP2;ratioP2;P2;SDS_P1;SDS_P2;PMS_P1;PMS_P2;Temp;Humidity;BMP_temperature;BMP_pressure;BME280_temperature;BME280_humidity;BME280_pressure;Samples;Min_cycle;Max_cycle;Signal;HPM_P1;HPM_P2
2023/01/23 00:02:07;;;;;;;27.50;17.58;;;2.50;99.90;;;;;;5062906;28;20423;-64
2023/01/23 00:04:35;;;;;;;25.10;16.20;;;2.50;99.90;;;;;;5064723;28;20417;-64
2023/01/23 00:07:03;;;;;;;26.50;16.10;;;2.40;99.90;;;;;;5065098;28;20468;-64
2023/01/23 00:09:30;;;;;;;26.13;16.15;;;2.50;99.90;;;;;;5064994;28;20417;-63
2023/01/23 00:11:57;;;;;;;26.65;16.88;;;2.40;99.90;;;;;;5065857;28;20421;-64
2023/01/23 00:14:24;;;;;;;27.35;16.98;;;2.40;99.90;;;;;;5067053;28;20417;-64
2023/01/23 00:16:51;;;;;;;28.45;17.30;;;2.40;99.90;;;;;;5066483;28;20428;-64
2023/01/23 00:19:17;;;;;;;29.58;18.33;;;2.40;99.90;;;;;;5065667;28;20405;-63
2023/01/23 00:21:46;;;;;;;28.27;16.60;;;2.40;99.90;;;;;;5063633;28;20413;-62
2023/01/23 00:24:13;;;;;;;31.60;16.93;;;2.40;99.90;;;;;;5060459;28;20414;-64
2023/01/23 00:26:40;;;;;;;28.08;16.88;;;2.40;99.90;;;;;;5056191;28;20422;-64
2023/01/23 00:29:06;;;;;;;33.90;18.70;;;2.40;99.90;;;;;;5057837;28;20492;-63
2023/01/23 00:31:37;;;;;;;30.00;17.58;;;2.30;99.90;;;;;;5057301;28;20429;-63
2023/01/23 00:34:08;;;;;;;35.35;19.00;;;2.30;99.90;;;;;;5058225;28;20420;-64
2023/01/23 00:36:37;;;;;;;36.30;18.33;;;2.30;99.90;;;;;;5057000;28;20428;-63
2023/01/23 00:39:07;;;;;;;37.30;19.42;;;2.30;99.90;;;;;;5056109;28;20838;-63
2023/01/23 00:41:34;;;;;;;36.35;19.70;;;2.30;99.90;;;;;;5056171;28;20419;-64
2023/01/23 00:44:01;;;;;;;39.78;19.65;;;2.30;99.90;;;;;;5056197;28;20424;-64
2023/01/23 00:46:28;;;;;;;37.55;19.05;;;2.30;99.90;;;;;;5056324;28;20869;-63
2023/01/23 00:48:55;;;;;;;40.70;20.48;;;2.30;99.90;;;;;;5055890;28;20428;-64
2023/01/23 00:51:22;;;;;;;39.77;19.00;;;2.30;99.90;;;;;;5056160;28;20857;-64
2023/01/23 00:53:48;;;;;;;40.65;19.30;;;2.30;99.90;;;;;;5055830;28;20519;-64
2023/01/23 00:56:17;;;;;;;34.60;18.87;;;2.30;99.90;;;;;;5055968;28;20913;-63
2023/01/23 00:58:44;;;;;;;39.28;18.58;;;2.30;99.90;;;;;;5055670;28;20408;-64
2023/01/23 01:01:11;;;;;;;43.05;20.40;;;2.30;99.90;;;;;;5055823;28;20428;-64
2023/01/23 01:03:38;;;;;;;37.20;18.48;;;2.30;99.90;;;;;;5056565;28;20417;-63
2023/01/23 01:06:05;;;;;;;43.20;19.97;;;2.20;99.90;;;;;;5055082;28;20421;-64
2023/01/23 01:08:32;;;;;;;42.05;19.65;;;2.20;99.90;;;;;;5055828;28;20417;-63
2023/01/23 01:10:59;;;;;;;40.80;20.25;;;2.30;99.90;;;;;;5055791;28;20466;-64
2023/01/23 01:13:29;;;;;;;44.92;19.55;;;2.30;99.90;;;;;;5056088;28;20402;-64
2023/01/23 01:15:56;;;;;;;44.15;19.85;;;2.20;99.90;;;;;;5055798;28;20429;-63
2023/01/23 01:18:24;;;;;;;42.58;19.60;;;2.30;99.90;;;;;;5056018;28;20504;-64
2023/01/23 01:20:51;;;;;;;39.75;20.48;;;2.20;99.90;;;;;;5055903;28;20594;-63
2023/01/23 01:23:18;;;;;;;41.88;19.40;;;2.20;99.90;;;;;;5055293;28;20414;-64
2023/01/23 01:25:44;;;;;;;40.55;19.67;;;2.20;99.90;;;;;;5054580;28;20421;-63
2023/01/23 01:28:13;;;;;;;37.30;19.42;;;2.20;99.90;;;;;;5054945;28;20420;-64
2023/01/23 01:30:41;;;;;;;38.38;19.20;;;2.20;99.90;;;;;;5054860;28;20916;-65
2023/01/23 01:33:09;;;;;;;42.53;19.67;;;2.20;99.90;;;;;;5055984;28;20413;-64
2023/01/23 01:35:39;;;;;;;38.80;19.35;;;2.20;99.90;;;;;;5055791;28;20425;-63
2023/01/23 01:38:07;;;;;;;36.08;18.63;;;2.20;99.90;;;;;;5054604;28;20799;-64
2023/01/23 01:40:35;;;;;;;40.08;19.65;;;2.20;99.90;;;;;;5055745;28;20432;-64
2023/01/23 01:43:05;;;;;;;36.10;19.00;;;2.30;99.90;;;;;;5055588;28;20469;-64
2023/01/23 01:46:12;;;;;;;39.58;20.65;;;2.20;99.90;;;;;;5055500;28;20417;-64
2023/01/23 01:48:44;;;;;;;36.58;18.35;;;2.30;99.90;;;;;;5055185;28;20507;-61
2023/01/23 01:51:18;;;;;;;38.65;18.08;;;2.20;99.90;;;;;;5056213;28;20409;-64
2023/01/23 01:53:49;;;;;;;43.35;19.80;;;2.20;99.90;;;;;;5059359;28;20418;-63
2023/01/23 01:56:17;;;;;;;37.17;19.47;;;2.20;99.90;;;;;;5063048;28;20435;-63
2023/01/23 01:58:47;;;;;;;34.83;17.60;;;2.20;99.90;;;;;;5062488;28;20413;-64
2023/01/23 02:01:15;;;;;;;32.13;17.92;;;2.20;99.90;;;;;;5057601;28;20780;-64
2023/01/23 02:03:44;;;;;;;35.30;18.17;;;2.30;99.90;;;;;;5063277;28;20420;-63
2023/01/23 02:06:12;;;;;;;33.65;18.17;;;2.30;99.90;;;;;;5059198;28;20896;-63
2023/01/23 02:08:44;;;;;;;34.53;18.25;;;2.30;99.90;;;;;;5058428;28;20721;-63
2023/01/23 02:11:13;;;;;;;37.88;18.35;;;2.30;99.90;;;;;;5059151;28;20432;-64
2023/01/23 02:13:41;;;;;;;37.05;18.70;;;2.30;99.90;;;;;;5056321;28;20508;-63
2023/01/23 02:16:10;;;;;;;37.85;19.20;;;2.30;99.90;;;;;;5056169;28;20433;-64
2023/01/23 02:18:43;;;;;;;36.78;18.40;;;2.30;99.90;;;;;;5054695;28;20424;-63
2023/01/23 02:21:11;;;;;;;36.40;18.30;;;2.30;99.90;;;;;;5054564;28;20417;-63
2023/01/23 02:23:47;;;;;;;34.60;19.13;;;2.30;99.90;;;;;;5054169;28;20405;-62
2023/01/23 02:26:18;;;;;;;36.90;19.10;;;2.30;99.90;;;;;;5054437;28;20424;-64
2023/01/23 02:28:46;;;;;;;34.55;18.92;;;2.30;99.90;;;;;;5054240;28;20888;-64
2023/01/23 02:31:13;;;;;;;34.35;17.58;;;2.30;99.90;;;;;;5054330;28;20409;-63
2023/01/23 02:33:47;;;;;;;33.22;18.05;;;2.40;99.90;;;;;;5053895;28;20421;-64
2023/01/23 02:36:15;;;;;;;34.30;18.55;;;2.40;99.90;;;;;;5053903;28;20447;-63
2023/01/23 02:39:03;;;;;;;37.45;18.63;;;2.40;99.90;;;;;;5053736;28;20500;-64
2023/01/23 02:41:33;;;;;;;38.47;18.85;;;2.30;99.90;;;;;;5054082;28;20765;-63
2023/01/23 02:44:04;;;;;;;33.08;18.48;;;2.30;99.90;;;;;;5053848;28;20413;-63
2023/01/23 02:46:31;;;;;;;36.83;18.20;;;2.30;99.90;;;;;;5053891;28;20416;-63
2023/01/23 02:48:58;;;;;;;38.15;19.58;;;2.30;99.90;;;;;;5053097;28;20421;-64
2023/01/23 02:51:25;;;;;;;39.88;18.75;;;2.30;99.90;;;;;;5053625;28;20423;-63
2023/01/23 02:53:52;;;;;;;38.08;18.80;;;2.30;99.90;;;;;;5054411;28;20972;-64
2023/01/23 02:56:19;;;;;;;37.60;18.77;;;2.30;99.90;;;;;;5053343;28;20793;-63
2023/01/23 03:01:34;;;;;;;40.55;19.75;;;2.30;99.90;;;;;;5053505;28;20463;-64
2023/01/23 03:04:03;;;;;;;40.75;18.58;;;2.30;99.90;;;;;;5054073;28;20413;-64
2023/01/23 03:06:35;;;;;;;35.42;17.83;;;2.30;99.90;;;;;;5053188;28;20711;-63
2023/01/23 03:09:04;;;;;;;37.13;18.65;;;2.30;99.90;;;;;;5068805;28;20428;-63
2023/01/23 03:11:32;;;;;;;35.35;18.77;;;2.30;99.90;;;;;;5070719;28;20431;-64
2023/01/23 03:14:00;;;;;;;37.00;19.00;;;2.30;99.90;;;;;;5070728;28;20413;-64
2023/01/23 03:16:27;;;;;;;37.88;18.42;;;2.30;99.90;;;;;;5070995;28;20429;-64
2023/01/23 03:18:56;;;;;;;38.17;18.58;;;2.30;99.90;;;;;;5060600;28;20417;-64
2023/01/23 03:21:23;;;;;;;32.80;18.60;;;2.30;99.90;;;;;;5055230;28;20414;-64
2023/01/23 03:23:50;;;;;;;36.83;19.08;;;2.30;99.90;;;;;;5055412;28;20413;-64
2023/01/23 03:26:16;;;;;;;39.17;19.35;;;2.40;99.90;;;;;;5053028;28;20416;-64
2023/01/23 03:31:29;;;;;;;38.20;19.30;;;2.30;99.90;;;;;;5054488;28;20404;-64
2023/01/23 03:33:56;;;;;;;42.38;18.90;;;2.30;99.90;;;;;;5054833;28;20435;-63
2023/01/23 03:36:23;;;;;;;43.65;18.55;;;2.40;99.90;;;;;;5054968;28;20931;-63
2023/01/23 03:41:33;;;;;;;38.92;18.80;;;2.40;99.90;;;;;;5052822;28;20396;-64
2023/01/23 03:44:00;;;;;;;37.80;19.47;;;2.40;99.90;;;;;;5052428;28;20533;-64
2023/01/23 03:46:28;;;;;;;40.47;18.52;;;2.40;99.90;;;;;;5052157;28;20413;-63
2023/01/23 03:48:55;;;;;;;38.55;19.02;;;2.40;99.90;;;;;;5051918;28;20908;-64
2023/01/23 03:51:22;;;;;;;41.72;18.90;;;2.40;99.90;;;;;;5052799;28;20425;-63
2023/01/23 03:53:49;;;;;;;46.08;19.35;;;2.40;99.90;;;;;;5052518;28;20425;-64
2023/01/23 03:56:15;;;;;;;36.67;18.37;;;2.40;99.90;;;;;;5051950;28;20443;-64
2023/01/23 03:58:42;;;;;;;40.97;19.25;;;2.40;99.90;;;;;;5052021;28;20851;-63
2023/01/23 04:01:10;;;;;;;33.67;17.90;;;2.40;99.90;;;;;;5051509;28;20413;-64
2023/01/23 04:03:38;;;;;;;35.80;17.95;;;2.40;99.90;;;;;;5051422;28;20885;-64
2023/01/23 04:06:05;;;;;;;35.95;18.27;;;2.40;99.90;;;;;;5051442;28;20409;-64
2023/01/23 04:11:04;;;;;;;39.17;16.98;;;2.40;99.90;;;;;;5110084;27;1249603;-63
2023/01/23 04:13:31;;;;;;;31.60;15.02;;;2.40;99.90;;;;;;5131287;28;20651;-64
2023/01/23 04:15:58;;;;;;;26.73;15.15;;;2.40;99.90;;;;;;5131525;28;20223;-63
2023/01/23 04:18:25;;;;;;;24.35;13.90;;;2.40;99.90;;;;;;5131255;28;20578;-63
2023/01/23 04:20:52;;;;;;;25.05;13.63;;;2.40;99.90;;;;;;5131780;28;20197;-64
2023/01/23 04:23:19;;;;;;;23.30;12.40;;;2.40;99.90;;;;;;5121180;22;20232;-62
2023/01/23 04:25:45;;;;;;;30.80;14.85;;;2.30;99.90;;;;;;5090332;28;20216;-61
2023/01/23 04:28:14;;;;;;;24.10;14.43;;;2.30;99.90;;;;;;5089888;28;20212;-62
2023/01/23 04:30:41;;;;;;;29.95;14.57;;;2.30;99.90;;;;;;5090228;28;20594;-62
2023/01/23 04:33:08;;;;;;;23.80;12.95;;;2.30;99.90;;;;;;5090167;28;20224;-61
2023/01/23 04:35:36;;;;;;;29.25;15.77;;;2.40;99.90;;;;;;5090239;28;20228;-61
2023/01/23 04:38:03;;;;;;;33.20;15.20;;;2.40;99.90;;;;;;5090044;28;20243;-62
2023/01/23 04:40:30;;;;;;;33.10;13.70;;;2.40;99.90;;;;;;5089708;28;20200;-62
2023/01/23 04:42:56;;;;;;;21.95;14.05;;;2.40;99.90;;;;;;5089829;28;20584;-62
2023/01/23 04:45:25;;;;;;;26.42;14.90;;;2.40;99.90;;;;;;5089909;28;20200;-61
2023/01/23 04:47:51;;;;;;;22.23;14.07;;;2.40;99.90;;;;;;5089657;28;20209;-62
2023/01/23 04:50:18;;;;;;;25.38;13.35;;;2.40;99.90;;;;;;5089515;28;20228;-61
2023/01/23 04:52:45;;;;;;;28.67;15.05;;;2.40;99.90;;;;;;5089243;28;20228;-61
2023/01/23 04:55:12;;;;;;;35.60;16.23;;;2.40;99.90;;;;;;5089505;28;20697;-62
2023/01/23 04:57:38;;;;;;;29.13;14.25;;;2.40;99.90;;;;;;5089530;28;20213;-62
2023/01/23 05:00:07;;;;;;;27.10;15.27;;;2.40;99.90;;;;;;5089765;28;20207;-62
2023/01/23 05:02:35;;;;;;;30.52;16.60;;;2.40;99.90;;;;;;5083896;28;20435;-62
2023/01/23 05:05:02;;;;;;;24.52;13.85;;;2.40;99.90;;;;;;5090133;28;20603;-61
2023/01/23 05:07:29;;;;;;;33.05;17.17;;;2.40;99.90;;;;;;5088225;28;20426;-61
2023/01/23 05:09:56;;;;;;;28.38;16.40;;;2.40;99.90;;;;;;5089784;28;20214;-61
2023/01/23 05:12:22;;;;;;;28.45;15.55;;;2.40;99.90;;;;;;5088859;28;20219;-62
2023/01/23 05:14:49;;;;;;;33.45;18.00;;;2.40;99.90;;;;;;5088282;28;20419;-62
2023/01/23 05:17:16;;;;;;;28.90;15.30;;;2.40;99.90;;;;;;5088793;28;20202;-62
2023/01/23 05:19:44;;;;;;;27.02;14.88;;;2.40;99.90;;;;;;5088830;28;20193;-61
2023/01/23 05:22:11;;;;;;;25.30;15.85;;;2.40;99.90;;;;;;5074110;28;20247;-61
2023/01/23 05:24:38;;;;;;;25.52;13.25;;;2.40;99.90;;;;;;5076478;28;20253;-61
2023/01/23 05:27:05;;;;;;;26.33;13.88;;;2.40;99.90;;;;;;5076429;28;20206;-62
2023/01/23 05:29:32;;;;;;;25.35;13.00;;;2.40;99.90;;;;;;5061961;28;20269;-61
2023/01/23 05:31:59;;;;;;;21.85;12.40;;;2.40;99.90;;;;;;5076288;28;20221;-61
2023/01/23 05:34:26;;;;;;;24.05;13.52;;;2.40;99.90;;;;;;5077358;28;20229;-61
2023/01/23 05:36:54;;;;;;;22.85;13.38;;;2.40;99.90;;;;;;5074235;28;20203;-61
2023/01/23 05:39:21;;;;;;;28.02;15.85;;;2.40;99.90;;;;;;5074723;28;20408;-60
2023/01/23 05:41:47;;;;;;;31.55;17.45;;;2.40;99.90;;;;;;5073910;28;20523;-61
2023/01/23 05:44:14;;;;;;;30.50;17.40;;;2.40;99.90;;;;;;5075096;28;20411;-62
2023/01/23 05:46:41;;;;;;;28.73;17.65;;;2.40;99.90;;;;;;5074883;28;20415;-61
2023/01/23 05:49:08;;;;;;;29.05;17.70;;;2.40;99.90;;;;;;5073609;28;20411;-62
2023/01/23 05:51:35;;;;;;;25.80;17.08;;;2.40;99.90;;;;;;5062371;28;20425;-62
2023/01/23 05:54:03;;;;;;;30.55;18.00;;;2.40;99.90;;;;;;5054405;28;20424;-61
2023/01/23 05:56:30;;;;;;;31.30;17.33;;;2.40;99.90;;;;;;5054297;28;20416;-62
2023/01/23 05:58:57;;;;;;;30.98;17.75;;;2.40;99.90;;;;;;5054518;28;20471;-61
2023/01/23 06:01:24;;;;;;;31.92;18.95;;;2.40;99.90;;;;;;5054377;28;20416;-62
2023/01/23 06:03:51;;;;;;;33.50;17.40;;;2.40;99.90;;;;;;5054646;28;20424;-63
2023/01/23 06:06:17;;;;;;;30.10;16.90;;;2.40;99.90;;;;;;5055542;28;20500;-60
2023/01/23 06:08:44;;;;;;;32.05;17.80;;;2.40;99.90;;;;;;5055020;28;20413;-63
2023/01/23 06:11:13;;;;;;;32.72;18.08;;;2.30;99.90;;;;;;5054981;28;20948;-61
2023/01/23 06:13:39;;;;;;;34.83;19.98;;;2.30;99.90;;;;;;5055498;28;20479;-62
2023/01/23 06:16:08;;;;;;;29.88;17.85;;;2.40;99.90;;;;;;5055474;28;20413;-62
2023/01/23 06:18:35;;;;;;;29.50;17.33;;;2.40;99.90;;;;;;5055434;28;20413;-62
2023/01/23 06:21:02;;;;;;;33.90;18.60;;;2.40;99.90;;;;;;5055242;28;20417;-62
2023/01/23 06:23:29;;;;;;;29.95;17.00;;;2.40;99.90;;;;;;5053846;28;20468;-63
2023/01/23 06:25:59;;;;;;;29.83;16.98;;;2.50;99.90;;;;;;5054400;28;20826;-62
2023/01/23 06:28:27;;;;;;;28.73;16.63;;;2.50;99.90;;;;;;5054192;28;20420;-62
2023/01/23 06:30:54;;;;;;;24.27;16.02;;;2.60;99.90;;;;;;5054431;28;20429;-63
2023/01/23 06:33:21;;;;;;;29.58;16.20;;;2.60;99.90;;;;;;5053186;28;20419;-61
2023/01/23 06:35:48;;;;;;;29.08;16.80;;;2.50;99.90;;;;;;5053752;28;20788;-62
2023/01/23 06:38:15;;;;;;;30.63;17.83;;;2.50;99.90;;;;;;5054118;28;20417;-62
2023/01/23 06:40:41;;;;;;;28.75;16.75;;;2.50;99.90;;;;;;5055263;28;20409;-62
2023/01/23 06:43:08;;;;;;;23.10;15.43;;;2.50;99.90;;;;;;5061439;28;20429;-62
2023/01/23 06:45:36;;;;;;;25.60;15.60;;;2.50;99.90;;;;;;5068364;28;20428;-62
2023/01/23 06:48:03;;;;;;;25.48;15.45;;;2.40;99.90;;;;;;5074883;28;20430;-61
2023/01/23 06:50:30;;;;;;;25.40;15.52;;;2.40;99.90;;;;;;5059807;28;20421;-62
2023/01/23 06:52:57;;;;;;;28.42;16.95;;;2.40;99.90;;;;;;5060103;28;20434;-62
2023/01/23 06:55:23;;;;;;;27.40;16.40;;;2.40;99.90;;;;;;5072944;28;20423;-63
2023/01/23 06:57:50;;;;;;;28.73;16.70;;;2.30;99.90;;;;;;5072591;28;20918;-62
2023/01/23 07:00:18;;;;;;;26.65;16.50;;;2.30;99.90;;;;;;5071892;28;20925;-62
2023/01/23 07:02:46;;;;;;;30.25;17.20;;;2.30;99.90;;;;;;5073190;28;20795;-62
2023/01/23 07:05:13;;;;;;;27.13;18.10;;;2.30;99.90;;;;;;5068387;28;20894;-63
2023/01/23 07:07:40;;;;;;;26.08;17.05;;;2.30;99.90;;;;;;5070881;28;20433;-62
2023/01/23 07:10:08;;;;;;;27.80;16.88;;;2.30;99.90;;;;;;5071911;28;20854;-63
2023/01/23 07:12:35;;;;;;;28.85;16.55;;;2.30;99.90;;;;;;5072862;28;20426;-62
2023/01/23 07:15:01;;;;;;;29.45;16.85;;;2.30;99.90;;;;;;5072405;28;20432;-63
2023/01/23 07:17:28;;;;;;;28.63;17.23;;;2.30;99.90;;;;;;5070425;28;20518;-62
2023/01/23 07:19:56;;;;;;;25.40;16.20;;;2.30;99.90;;;;;;5072967;28;20796;-63
2023/01/23 07:22:23;;;;;;;25.73;16.20;;;2.30;99.90;;;;;;5072062;28;20950;-62
2023/01/23 07:24:50;;;;;;;28.45;16.55;;;2.30;99.90;;;;;;5069186;28;20849;-62
2023/01/23 07:27:17;;;;;;;29.58;17.00;;;2.20;99.90;;;;;;5054767;28;21104;-63
2023/01/23 07:29:44;;;;;;;28.80;18.60;;;2.20;99.90;;;;;;5072793;28;20914;-64
2023/01/23 07:32:11;;;;;;;28.80;17.33;;;2.20;99.90;;;;;;5071159;28;20799;-61
2023/01/23 07:34:38;;;;;;;28.17;17.50;;;2.20;99.90;;;;;;5072602;28;20633;-63
2023/01/23 07:37:06;;;;;;;34.10;17.85;;;2.20;99.90;;;;;;5055479;28;20421;-63
2023/01/23 07:39:33;;;;;;;31.38;18.23;;;2.10;99.90;;;;;;5071053;28;20419;-63
2023/01/23 07:41:59;;;;;;;32.25;19.10;;;2.10;99.90;;;;;;5072669;28;20418;-64
2023/01/23 07:44:26;;;;;;;31.27;18.63;;;2.10;99.90;;;;;;5072714;28;20416;-64
2023/01/23 07:46:53;;;;;;;31.92;18.40;;;2.10;99.90;;;;;;5072814;28;20426;-62
2023/01/23 07:49:20;;;;;;;33.38;18.80;;;2.10;99.90;;;;;;5072701;28;20420;-63
2023/01/23 07:51:47;;;;;;;32.58;19.20;;;2.10;99.90;;;;;;5072386;28;20428;-63
2023/01/23 07:54:15;;;;;;;34.63;19.58;;;2.10;99.90;;;;;;5071924;28;20420;-64
2023/01/23 07:56:41;;;;;;;31.38;18.42;;;2.10;99.90;;;;;;5072154;28;20775;-63
2023/01/23 07:59:08;;;;;;;32.90;19.20;;;2.10;99.90;;;;;;5072036;28;20438;-63
2023/01/23 08:01:35;;;;;;;32.35;19.55;;;2.10;99.90;;;;;;5072223;28;20410;-62
2023/01/23 08:04:02;;;;;;;27.10;17.92;;;2.10;99.90;;;;;;5072514;28;20410;-64
2023/01/23 08:06:28;;;;;;;29.30;18.35;;;2.10;99.90;;;;;;5072639;28;20408;-63
2023/01/23 08:08:55;;;;;;;29.77;18.95;;;2.10;99.90;;;;;;5072290;28;20414;-63
2023/01/23 08:11:25;;;;;;;32.67;19.20;;;2.10;99.90;;;;;;5071619;28;20430;-63
2023/01/23 08:13:52;;;;;;;32.90;19.40;;;2.10;99.90;;;;;;5072162;28;20854;-64
2023/01/23 08:16:19;;;;;;;35.47;20.40;;;2.10;99.90;;;;;;5072216;28;20413;-63
2023/01/23 08:18:46;;;;;;;30.13;18.23;;;2.20;99.90;;;;;;5072315;28;20768;-62
2023/01/23 08:21:13;;;;;;;32.00;19.30;;;2.20;99.90;;;;;;5072355;28;20423;-63
2023/01/23 08:23:40;;;;;;;32.25;18.67;;;2.30;99.90;;;;;;5071379;28;20851;-63
2023/01/23 08:26:08;;;;;;;30.33;18.23;;;2.30;99.90;;;;;;5072044;28;20828;-62
2023/01/23 08:28:37;;;;;;;31.42;19.40;;;2.30;99.90;;;;;;5072258;28;20412;-62
2023/01/23 08:31:06;;;;;;;26.80;18.02;;;2.40;99.90;;;;;;5072072;28;20937;-62
2023/01/23 08:33:33;;;;;;;30.38;18.77;;;2.40;99.90;;;;;;5071779;28;20442;-62
2023/01/23 08:36:01;;;;;;;29.58;17.58;;;2.40;99.90;;;;;;5072693;28;20469;-62
2023/01/23 08:38:27;;;;;;;27.25;17.73;;;2.50;99.90;;;;;;5072659;28;20415;-63
2023/01/23 08:40:58;;;;;;;26.50;17.52;;;2.50;99.90;;;;;;5072296;28;20412;-63
2023/01/23 08:43:25;;;;;;;29.15;18.20;;;2.50;99.90;;;;;;5072133;28;20422;-62
2023/01/23 08:45:54;;;;;;;29.85;18.40;;;2.50;99.90;;;;;;5072459;28;20986;-61
2023/01/23 08:48:23;;;;;;;32.08;18.38;;;2.60;99.90;;;;;;5071924;28;20451;-63
2023/01/23 08:50:50;;;;;;;27.88;17.15;;;2.60;99.90;;;;;;5072398;28;20487;-63
2023/01/23 08:53:17;;;;;;;32.55;19.40;;;2.60;99.90;;;;;;5071474;28;20412;-63
2023/01/23 08:55:44;;;;;;;28.70;18.23;;;2.60;99.90;;;;;;5071641;28;20419;-63
2023/01/23 08:58:12;;;;;;;29.95;17.95;;;2.60;99.90;;;;;;5075472;28;20441;-62
2023/01/23 09:00:39;;;;;;;28.55;17.65;;;2.60;99.90;;;;;;5075060;28;20414;-63
2023/01/23 09:03:07;;;;;;;27.02;17.25;;;2.60;99.90;;;;;;5075463;28;20415;-62
2023/01/23 09:05:35;;;;;;;25.27;16.70;;;2.60;99.90;;;;;;5075233;28;20415;-62
2023/01/23 09:08:02;;;;;;;29.17;17.83;;;2.60;99.90;;;;;;5074669;28;20930;-60
2023/01/23 09:10:28;;;;;;;25.75;16.20;;;2.50;99.90;;;;;;5074509;28;20768;-62
2023/01/23 09:12:56;;;;;;;27.05;16.77;;;2.50;99.90;;;;;;5074579;28;20414;-63
2023/01/23 09:15:22;;;;;;;26.52;17.02;;;2.60;99.90;;;;;;5074905;28;20411;-63
2023/01/23 09:17:50;;;;;;;26.75;16.90;;;2.60;99.90;;;;;;5075312;28;20429;-63
2023/01/23 09:20:18;;;;;;;26.45;16.40;;;2.50;99.90;;;;;;5076559;28;20422;-63
2023/01/23 09:22:45;;;;;;;25.30;15.90;;;2.60;99.90;;;;;;5075947;28;20419;-63
2023/01/23 09:25:13;;;;;;;25.02;16.25;;;2.60;99.90;;;;;;5075053;28;20431;-64
2023/01/23 09:27:40;;;;;;;23.80;16.20;;;2.60;99.90;;;;;;5074824;28;20423;-62
2023/01/23 09:30:08;;;;;;;24.67;15.75;;;2.60;99.90;;;;;;5075363;28;20407;-62
2023/01/23 09:32:34;;;;;;;26.55;16.67;;;2.70;99.90;;;;;;5075978;28;20434;-63
2023/01/23 09:35:01;;;;;;;25.83;16.48;;;2.70;99.90;;;;;;5075763;28;20421;-63
2023/01/23 09:37:58;;;;;;;25.10;16.93;;;2.70;99.90;;;;;;5076633;28;20464;-63
2023/01/23 09:40:22;;;;;;;25.08;16.17;;;2.70;99.90;;;;;;5076005;28;20411;-62
2023/01/23 09:42:50;;;;;;;26.40;16.05;;;2.60;99.90;;;;;;5076280;28;20419;-64
2023/01/23 09:45:21;;;;;;;25.42;16.00;;;2.60;99.90;;;;;;5076586;28;20407;-63
2023/01/23 09:47:54;;;;;;;25.98;16.40;;;2.60;99.90;;;;;;5076278;28;20422;-63
2023/01/23 09:50:25;;;;;;;22.75;14.70;;;2.60;99.90;;;;;;5075685;28;20407;-62
2023/01/23 09:52:58;;;;;;;22.92;15.90;;;2.60;99.90;;;;;;5075497;28;20415;-63
2023/01/23 09:55:36;;;;;;;24.90;16.25;;;2.60;99.90;;;;;;5075313;28;20418;-64
2023/01/23 09:58:04;;;;;;;22.95;15.80;;;2.50;99.90;;;;;;5075685;28;20422;-63
2023/01/23 10:00:33;;;;;;;23.75;15.63;;;2.50;99.90;;;;;;5075485;28;20416;-62
2023/01/23 10:03:02;;;;;;;22.77;15.20;;;2.60;99.90;;;;;;5075033;28;20929;-63
2023/01/23 10:05:39;;;;;;;24.90;16.10;;;2.60;99.90;;;;;;5074513;28;20918;-62
2023/01/23 10:08:18;;;;;;;26.07;16.57;;;2.60;99.90;;;;;;5074739;28;20415;-64
2023/01/23 10:11:02;;;;;;;26.45;16.70;;;2.60;99.90;;;;;;5074870;28;20435;-64
2023/01/23 10:13:52;;;;;;;27.02;16.88;;;2.70;99.90;;;;;;5074412;28;20925;-64
2023/01/23 10:16:33;;;;;;;24.55;16.25;;;2.80;99.90;;;;;;5074470;28;20408;-63
2023/01/23 10:19:10;;;;;;;26.10;16.55;;;2.80;99.90;;;;;;5074086;28;20411;-62
2023/01/23 10:21:44;;;;;;;27.23;17.50;;;2.90;99.90;;;;;;5074873;28;20419;-64
2023/01/23 10:24:32;;;;;;;25.33;16.27;;;2.90;99.90;;;;;;5074059;28;20729;-64
2023/01/23 10:27:13;;;;;;;26.17;16.85;;;3.00;99.90;;;;;;5073925;28;20412;-63
2023/01/23 10:29:44;;;;;;;25.25;16.70;;;3.00;99.90;;;;;;5073932;28;20419;-64
2023/01/23 10:32:23;;;;;;;25.43;16.93;;;3.00;99.90;;;;;;5073971;28;21054;-62
2023/01/23 10:34:56;;;;;;;26.67;16.95;;;3.10;99.90;;;;;;5074135;28;20423;-63
2023/01/23 10:37:38;;;;;;;23.48;15.38;;;3.10;99.90;;;;;;5073769;28;20905;-65
2023/01/23 10:40:13;;;;;;;27.60;16.70;;;3.10;99.90;;;;;;5073916;28;20784;-62
2023/01/23 10:42:40;;;;;;;23.73;15.57;;;3.10;99.90;;;;;;5073594;28;20407;-61
2023/01/23 10:45:13;;;;;;;24.73;15.55;;;3.10;99.90;;;;;;5073849;28;20407;-64
2023/01/23 10:47:43;;;;;;;24.10;15.73;;;3.10;99.90;;;;;;5074831;28;20419;-64
2023/01/23 10:50:14;;;;;;;25.92;16.52;;;3.00;99.90;;;;;;5087293;22;20524;-63
2023/01/23 10:52:45;;;;;;;26.63;15.95;;;3.00;99.90;;;;;;5013449;28;20814;-62
2023/01/23 10:55:30;;;;;;;27.98;17.33;;;3.00;99.90;;;;;;5013159;28;20423;-63
2023/01/23 10:58:01;;;;;;;23.20;15.77;;;2.90;99.90;;;;;;5012960;28;20425;-64
2023/01/23 11:00:36;;;;;;;26.15;16.17;;;2.90;99.90;;;;;;5019473;28;20783;-63
2023/01/23 11:03:24;;;;;;;27.65;17.08;;;2.90;99.90;;;;;;5032710;28;20419;-62
2023/01/23 11:05:53;;;;;;;26.87;16.83;;;2.90;99.90;;;;;;5032651;28;20496;-63
2023/01/23 11:08:26;;;;;;;27.00;16.70;;;2.90;99.90;;;;;;5032752;28;20443;-63
2023/01/23 11:10:54;;;;;;;27.38;18.10;;;2.90;99.90;;;;;;5032690;28;20866;-64
2023/01/23 11:13:29;;;;;;;29.65;17.17;;;2.80;99.90;;;;;;5032677;28;20414;-63
2023/01/23 11:15:56;;;;;;;26.70;16.88;;;2.90;99.90;;;;;;5032375;28;20415;-64
2023/01/23 11:18:31;;;;;;;26.55;16.10;;;2.90;99.90;;;;;;5032420;28;20419;-63
2023/01/23 11:20:58;;;;;;;27.30;17.60;;;2.90;99.90;;;;;;5032455;28;20485;-64
2023/01/23 11:23:25;;;;;;;29.13;18.33;;;2.90;99.90;;;;;;5032702;28;20783;-64
2023/01/23 11:25:54;;;;;;;29.48;17.00;;;3.00;99.90;;;;;;5032973;28;20423;-64
2023/01/23 11:28:26;;;;;;;27.70;17.63;;;3.00;99.90;;;;;;5032407;28;20768;-63
2023/01/23 11:30:56;;;;;;;26.40;17.60;;;2.90;99.90;;;;;;5032066;28;20419;-63
2023/01/23 11:33:38;;;;;;;33.42;18.30;;;2.90;99.90;;;;;;5032853;28;20425;-62
2023/01/23 11:36:28;;;;;;;27.50;16.85;;;2.80;99.90;;;;;;5032608;28;20414;-64
2023/01/23 11:38:58;;;;;;;27.02;17.83;;;2.80;99.90;;;;;;5032596;28;20512;-62
2023/01/23 11:41:30;;;;;;;28.95;18.23;;;2.80;99.90;;;;;;5032288;28;20415;-65
2023/01/23 11:43:57;;;;;;;29.10;17.00;;;2.80;99.90;;;;;;5032340;28;20502;-65
2023/01/23 11:46:45;;;;;;;28.85;17.33;;;2.80;99.90;;;;;;5032223;28;20419;-65
2023/01/23 11:49:28;;;;;;;24.42;16.25;;;2.80;99.90;;;;;;5032220;28;20425;-66
2023/01/23 11:52:10;;;;;;;28.63;17.20;;;2.70;99.90;;;;;;5031762;28;20825;-63
2023/01/23 11:54:58;;;;;;;26.45;16.25;;;2.80;99.90;;;;;;5032012;28;20427;-63
2023/01/23 11:57:36;;;;;;;29.90;16.95;;;2.90;99.90;;;;;;5032873;28;20513;-63
2023/01/23 12:00:20;;;;;;;26.70;16.90;;;2.80;99.90;;;;;;5031721;28;20890;-62
2023/01/23 12:03:16;;;;;;;23.65;15.80;;;2.80;99.90;;;;;;5033189;28;20415;-63
2023/01/23 12:06:11;;;;;;;23.23;15.80;;;2.80;99.90;;;;;;5032673;28;20502;-65
2023/01/23 12:08:43;;;;;;;22.88;14.95;;;2.80;99.90;;;;;;5032209;28;20791;-64
2023/01/23 12:11:15;;;;;;;22.15;15.65;;;2.80;99.90;;;;;;5031832;28;20925;-66
2023/01/23 12:14:13;;;;;;;24.00;15.67;;;2.80;99.90;;;;;;5032573;28;20505;-64
2023/01/23 12:17:16;;;;;;;23.38;14.85;;;2.80;99.90;;;;;;5019748;28;20473;-66
2023/01/23 12:20:03;;;;;;;23.30;14.93;;;2.80;99.90;;;;;;5031909;28;20493;-65
2023/01/23 12:22:43;;;;;;;23.33;15.63;;;2.80;99.90;;;;;;5033345;28;20538;-64
2023/01/23 12:25:23;;;;;;;23.50;15.23;;;2.90;99.90;;;;;;5032817;28;20410;-66
2023/01/23 12:27:56;;;;;;;21.25;15.43;;;3.00;99.90;;;;;;5032216;28;20423;-64
2023/01/23 12:30:49;;;;;;;23.60;15.25;;;3.00;99.90;;;;;;5032085;28;20441;-64
2023/01/23 12:33:29;;;;;;;19.05;13.82;;;3.00;99.90;;;;;;5036585;28;20435;-65
2023/01/23 12:36:13;;;;;;;21.45;14.85;;;3.00;99.90;;;;;;5036242;28;20426;-64
2023/01/23 12:38:49;;;;;;;22.00;15.00;;;3.00;99.90;;;;;;5036353;28;20430;-67
2023/01/23 12:41:25;;;;;;;22.50;14.65;;;3.00;99.90;;;;;;5035824;28;20431;-62
2023/01/23 12:43:57;;;;;;;20.55;15.25;;;3.00;99.90;;;;;;5036842;28;20514;-64
2023/01/23 12:46:32;;;;;;;20.23;14.48;;;3.00;99.90;;;;;;5037164;28;20415;-65
2023/01/23 12:49:12;;;;;;;19.65;14.55;;;3.00;99.90;;;;;;5036075;28;20423;-65
2023/01/23 12:51:48;;;;;;;20.38;14.20;;;2.90;99.90;;;;;;5034837;28;20426;-63
2023/01/23 12:54:19;;;;;;;21.67;14.52;;;2.90;99.90;;;;;;5034807;28;20794;-64
2023/01/23 12:56:47;;;;;;;19.33;13.98;;;2.80;99.90;;;;;;5035257;28;20415;-61
2023/01/23 12:59:21;;;;;;;21.75;14.45;;;2.80;99.90;;;;;;5035262;28;20415;-63
2023/01/23 13:02:00;;;;;;;19.10;13.82;;;2.80;99.90;;;;;;5035213;28;20424;-65